createdAt,value
2023-02-02T00:01:35.637Z,5.60
2023-02-02T00:04:24.126Z,5.60
2023-02-02T00:07:12.059Z,5.60
2023-02-02T00:09:59.769Z,5.60
2023-02-02T00:12:46.598Z,5.50
2023-02-02T00:15:33.028Z,5.60
2023-02-02T00:18:19.410Z,5.60
2023-02-02T00:21:06.217Z,5.60
2023-02-02T00:23:54.392Z,5.60
2023-02-02T00:26:42.559Z,5.60
2023-02-02T00:29:30.436Z,5.70
2023-02-02T00:32:17.151Z,5.60
2023-02-02T00:35:03.527Z,5.70
2023-02-02T00:37:49.929Z,5.70
2023-02-02T00:40:37.801Z,5.70
2023-02-02T00:43:24.636Z,5.70
2023-02-02T00:46:13.825Z,5.70
2023-02-02T00:49:00.481Z,5.80
2023-02-02T00:51:46.868Z,5.70
2023-02-02T00:54:33.089Z,5.70
2023-02-02T00:57:20.875Z,5.70
2023-02-02T01:00:09.220Z,5.70
2023-02-02T01:02:56.992Z,5.70
2023-02-02T01:05:43.316Z,5.70
2023-02-02T01:08:29.708Z,5.70
2023-02-02T01:11:16.482Z,5.70
2023-02-02T01:14:04.969Z,5.70
2023-02-02T01:16:51.427Z,5.60
2023-02-02T01:19:38.318Z,5.60
2023-02-02T01:22:24.785Z,5.70
2023-02-02T01:25:11.603Z,5.70
2023-02-02T01:27:58.143Z,5.70
2023-02-02T01:30:46.035Z,5.70
2023-02-02T01:33:32.448Z,5.70
2023-02-02T01:36:21.338Z,5.70
2023-02-02T01:39:08.018Z,5.70
2023-02-02T01:41:54.486Z,5.70
2023-02-02T01:45:08.297Z,5.60
2023-02-02T01:47:59.607Z,5.60
2023-02-02T01:50:46.015Z,5.60
2023-02-02T01:53:33.621Z,5.60
2023-02-02T01:56:26.889Z,5.60
2023-02-02T01:59:16.067Z,5.50
2023-02-02T02:02:03.459Z,5.60
2023-02-02T02:04:52.290Z,5.60
2023-02-02T02:07:41.285Z,5.50
2023-02-02T02:10:28.141Z,5.50
2023-02-02T02:13:15.710Z,5.60
2023-02-02T02:16:19.796Z,5.50
2023-02-02T02:19:20.134Z,5.50
2023-02-02T02:22:46.342Z,5.50
2023-02-02T02:26:11.952Z,5.50
2023-02-02T02:29:14.734Z,5.50
2023-02-02T02:32:22.950Z,5.40
2023-02-02T02:35:16.937Z,5.40
2023-02-02T02:38:10.775Z,5.40
2023-02-02T02:41:00.937Z,5.40
2023-02-02T02:43:51.981Z,5.40
2023-02-02T02:46:39.329Z,5.30
2023-02-02T02:49:27.124Z,5.30
2023-02-02T02:52:13.784Z,5.30
2023-02-02T02:55:01.185Z,5.40
2023-02-02T02:58:08.486Z,5.40
2023-02-02T03:01:04.372Z,5.30
2023-02-02T03:04:07.154Z,5.30
2023-02-02T03:07:02.260Z,5.30
2023-02-02T03:09:49.976Z,5.30
2023-02-02T03:12:45.442Z,5.20
2023-02-02T03:15:32.430Z,5.20
2023-02-02T03:18:23.471Z,5.20
2023-02-02T03:21:09.690Z,5.20
2023-02-02T03:23:57.433Z,5.30
2023-02-02T03:26:44.451Z,5.30
2023-02-02T03:29:31.309Z,5.20
2023-02-02T03:32:18.009Z,5.30
2023-02-02T03:35:05.088Z,5.30
2023-02-02T03:37:51.731Z,5.30
2023-02-02T03:40:39.662Z,5.30
2023-02-02T03:43:26.523Z,5.30
2023-02-02T03:46:13.134Z,5.30
2023-02-02T03:48:59.907Z,5.30
2023-02-02T03:51:46.355Z,5.30
2023-02-02T03:54:32.663Z,5.30
2023-02-02T03:57:20.744Z,5.30
2023-02-02T04:00:09.168Z,5.30
2023-02-02T04:02:55.965Z,5.30
2023-02-02T04:05:42.583Z,5.40
2023-02-02T04:08:29.473Z,5.40
2023-02-02T04:11:15.881Z,5.40
2023-02-02T04:14:03.662Z,5.50
2023-02-02T04:16:50.405Z,5.40
2023-02-02T04:19:36.776Z,5.40
2023-02-02T04:22:23.252Z,5.50
2023-02-02T04:25:09.971Z,5.50
2023-02-02T04:27:56.386Z,5.50
2023-02-02T04:30:44.204Z,5.50
2023-02-02T04:33:30.689Z,5.50
2023-02-02T04:36:17.069Z,5.50
2023-02-02T04:39:03.472Z,5.60
2023-02-02T04:41:49.740Z,5.60
2023-02-02T04:44:36.163Z,5.70
2023-02-02T04:47:23.893Z,5.90
2023-02-02T04:50:12.142Z,5.70
2023-02-02T04:52:58.525Z,5.70
2023-02-02T04:55:45.043Z,5.70
2023-02-02T04:58:31.253Z,5.70
2023-02-02T05:01:19.286Z,5.80
2023-02-02T05:04:07.402Z,5.80
2023-02-02T05:06:54.016Z,5.80
2023-02-02T05:09:40.246Z,5.80
2023-02-02T05:12:26.819Z,5.80
2023-02-02T05:15:13.417Z,5.80
2023-02-02T05:17:59.830Z,5.90
2023-02-02T05:20:47.633Z,5.90
2023-02-02T05:23:34.057Z,6.00
2023-02-02T05:26:23.700Z,5.90
2023-02-02T05:29:10.611Z,6.00
2023-02-02T05:31:57.574Z,5.90
2023-02-02T05:34:44.351Z,6.00
2023-02-02T05:37:32.177Z,6.00
2023-02-02T05:40:19.256Z,6.00
2023-02-02T05:43:05.853Z,6.00
2023-02-02T05:45:52.272Z,6.00
2023-02-02T05:48:38.771Z,6.00
2023-02-02T05:51:28.232Z,6.00
2023-02-02T05:54:20.358Z,6.00
2023-02-02T05:57:07.062Z,6.00
2023-02-02T05:59:53.550Z,6.00
2023-02-02T06:02:39.988Z,5.90
2023-02-02T06:05:26.628Z,6.00
2023-02-02T06:08:13.339Z,6.00
2023-02-02T06:11:01.243Z,6.00
2023-02-02T06:13:50.779Z,6.00
2023-02-02T06:16:37.383Z,6.00
2023-02-02T06:19:23.830Z,6.00
2023-02-02T06:22:10.320Z,5.90
2023-02-02T06:24:56.555Z,6.00
2023-02-02T06:27:46.181Z,6.00
2023-02-02T06:30:32.950Z,5.90
2023-02-02T06:33:19.399Z,6.00
2023-02-02T06:36:07.975Z,6.10
2023-02-02T06:38:56.691Z,6.10
2023-02-02T06:41:46.562Z,6.00
2023-02-02T06:44:34.479Z,6.10
2023-02-02T06:47:21.081Z,6.10
2023-02-02T06:50:08.687Z,6.10
2023-02-02T06:52:55.341Z,6.10
2023-02-02T06:55:41.480Z,6.00
2023-02-02T06:58:28.921Z,6.10
2023-02-02T07:01:16.857Z,6.10
2023-02-02T07:04:03.467Z,6.10
2023-02-02T07:06:49.904Z,6.10
2023-02-02T07:09:36.985Z,6.10
2023-02-02T07:12:24.478Z,6.00
2023-02-02T07:15:12.205Z,6.00
2023-02-02T07:18:00.108Z,6.00
2023-02-02T07:20:46.597Z,6.00
2023-02-02T07:23:34.286Z,6.00
2023-02-02T07:26:20.928Z,6.10
2023-02-02T07:29:07.437Z,6.10
2023-02-02T07:31:53.911Z,6.10
2023-02-02T07:34:42.403Z,6.10
2023-02-02T07:37:29.192Z,6.10
2023-02-02T07:40:15.604Z,6.10
2023-02-02T07:43:02.621Z,6.00
2023-02-02T07:45:49.145Z,6.00
2023-02-02T07:48:36.098Z,6.00
2023-02-02T07:51:25.441Z,6.00
2023-02-02T07:54:12.411Z,6.00
2023-02-02T07:57:01.002Z,6.00
2023-02-02T07:59:47.316Z,6.00
2023-02-02T08:02:33.735Z,6.10
2023-02-02T08:05:20.457Z,6.00
2023-02-02T08:08:08.433Z,6.00
2023-02-02T08:10:55.522Z,6.10
2023-02-02T08:13:42.965Z,6.00
2023-02-02T08:16:32.244Z,6.00
2023-02-02T08:19:18.882Z,6.00
2023-02-02T08:22:05.122Z,6.10
2023-02-02T08:24:52.996Z,6.10
2023-02-02T08:27:39.580Z,6.10
2023-02-02T08:30:26.430Z,6.10
2023-02-02T08:33:14.422Z,6.10
2023-02-02T08:36:00.818Z,6.10
2023-02-02T08:38:47.621Z,6.10
2023-02-02T08:41:36.844Z,6.10
2023-02-02T08:44:24.585Z,6.10
2023-02-02T08:47:13.465Z,6.10
2023-02-02T08:50:00.344Z,6.10
2023-02-02T08:52:46.778Z,6.10
2023-02-02T08:55:33.218Z,6.10
2023-02-02T08:58:21.018Z,6.10
2023-02-02T09:01:09.209Z,6.20
2023-02-02T09:03:57.140Z,6.10
2023-02-02T09:06:44.102Z,6.20
2023-02-02T09:09:30.574Z,6.20
2023-02-02T09:12:17.043Z,6.20
2023-02-02T09:15:05.336Z,6.20
2023-02-02T09:17:51.855Z,6.20
2023-02-02T09:20:39.121Z,6.30
2023-02-02T09:23:26.165Z,6.30
2023-02-02T09:26:14.664Z,6.30
2023-02-02T09:29:03.464Z,6.40
2023-02-02T09:31:51.569Z,6.30
2023-02-02T09:34:40.061Z,6.40
2023-02-02T09:37:26.516Z,6.50
2023-02-02T09:40:18.892Z,6.40
2023-02-02T09:43:28.649Z,6.50
2023-02-02T09:46:27.189Z,6.50
2023-02-02T09:49:18.701Z,6.50
2023-02-02T09:52:14.558Z,6.30
2023-02-02T09:55:04.451Z,6.40
2023-02-02T09:57:55.186Z,6.60
2023-02-02T10:00:47.139Z,6.60
2023-02-02T10:03:38.872Z,6.60
2023-02-02T10:06:34.605Z,6.50
2023-02-02T10:09:34.948Z,6.60
2023-02-02T10:12:31.188Z,6.70
2023-02-02T10:15:27.962Z,6.70
2023-02-02T10:18:22.013Z,6.70
2023-02-02T10:21:13.724Z,6.80
2023-02-02T10:24:04.544Z,6.70
2023-02-02T10:26:53.953Z,6.70
2023-02-02T10:29:52.725Z,6.80
2023-02-02T10:32:48.851Z,6.80
2023-02-02T10:35:43.354Z,6.90
2023-02-02T10:38:39.700Z,6.80
2023-02-02T10:41:34.245Z,6.90
2023-02-02T10:44:30.762Z,6.90
2023-02-02T10:47:26.550Z,7.00
2023-02-02T10:50:19.112Z,7.10
2023-02-02T10:53:14.270Z,7.10
2023-02-02T10:56:05.987Z,7.20
2023-02-02T10:58:58.994Z,7.20
2023-02-02T11:01:46.356Z,7.20
2023-02-02T11:04:47.105Z,7.20
2023-02-02T11:07:33.838Z,7.30
2023-02-02T11:10:20.561Z,7.30
2023-02-02T11:13:08.871Z,7.30
2023-02-02T11:16:21.078Z,7.30
2023-02-02T11:19:24.652Z,7.30
2023-02-02T11:22:26.038Z,7.30
2023-02-02T11:25:32.282Z,7.30
2023-02-02T11:28:21.562Z,7.30
2023-02-02T11:31:08.061Z,7.30
2023-02-02T11:34:10.566Z,7.40
2023-02-02T11:37:12.585Z,7.50
2023-02-02T11:40:26.494Z,7.60
2023-02-02T11:43:20.883Z,7.60
2023-02-02T11:46:17.568Z,7.60
2023-02-02T11:49:08.447Z,7.50
2023-02-02T11:52:04.472Z,7.50
2023-02-02T11:54:52.990Z,7.60
2023-02-02T11:57:41.018Z,7.60
2023-02-02T12:00:29.141Z,7.70
2023-02-02T12:03:26.076Z,7.70
2023-02-02T12:06:21.255Z,7.70
2023-02-02T12:09:14.404Z,7.60
2023-02-02T12:12:09.173Z,7.60
2023-02-02T12:15:08.495Z,7.60
2023-02-02T12:18:01.502Z,7.80
2023-02-02T12:20:55.677Z,7.70
2023-02-02T12:23:57.747Z,7.80
2023-02-02T12:26:49.946Z,7.90
2023-02-02T12:29:51.684Z,7.90
2023-02-02T12:32:51.169Z,7.90
2023-02-02T12:35:56.747Z,7.90
2023-02-02T12:39:01.709Z,8.10
2023-02-02T12:42:16.794Z,8.20
2023-02-02T12:45:34.205Z,8.20
2023-02-02T12:48:38.130Z,8.30
2023-02-02T12:51:39.933Z,8.30
2023-02-02T12:54:47.578Z,8.30
2023-02-02T12:57:54.713Z,8.20
2023-02-02T13:01:13.723Z,8.20
2023-02-02T13:04:37.076Z,8.20
2023-02-02T13:07:41.781Z,8.20
2023-02-02T13:10:33.046Z,8.20
2023-02-02T13:13:24.794Z,8.30
2023-02-02T13:16:14.294Z,8.20
2023-02-02T13:19:05.648Z,8.40
2023-02-02T13:21:54.833Z,8.20
2023-02-02T13:24:46.189Z,8.10
2023-02-02T13:27:33.907Z,8.10
2023-02-02T13:30:31.237Z,8.30
2023-02-02T13:33:23.476Z,8.30
2023-02-02T13:36:18.984Z,8.20
2023-02-02T13:39:17.108Z,8.20
2023-02-02T13:42:16.820Z,8.30
2023-02-02T13:45:21.365Z,8.20
2023-02-02T13:48:19.447Z,8.10
2023-02-02T13:51:34.342Z,8.00
2023-02-02T13:55:09.873Z,8.10
2023-02-02T13:58:35.889Z,8.10
2023-02-02T14:01:24.898Z,8.00
2023-02-02T14:04:22.121Z,7.90
2023-02-02T14:07:10.673Z,7.70
2023-02-02T14:09:57.388Z,7.80
2023-02-02T14:12:45.065Z,7.90
2023-02-02T14:15:41.091Z,7.80
2023-02-02T14:18:56.108Z,7.80
2023-02-02T14:22:03.173Z,7.90
2023-02-02T14:24:51.333Z,7.80
2023-02-02T14:27:57.963Z,7.80
2023-02-02T14:30:45.824Z,7.60
2023-02-02T14:33:47.460Z,7.70
2023-02-02T14:36:38.128Z,7.70
2023-02-02T14:39:30.251Z,7.70
2023-02-02T14:42:45.303Z,7.70
2023-02-02T14:45:33.647Z,7.70
2023-02-02T14:48:22.971Z,7.70
2023-02-02T14:51:15.900Z,7.60
2023-02-02T14:54:04.626Z,7.60
2023-02-02T14:56:54.726Z,7.50
2023-02-02T14:59:47.066Z,7.60
2023-02-02T15:02:36.098Z,7.40
2023-02-02T15:05:46.195Z,7.40
2023-02-02T15:08:33.122Z,7.30
2023-02-02T15:11:32.193Z,7.40
2023-02-02T15:14:21.701Z,7.40
2023-02-02T15:17:21.365Z,7.50
2023-02-02T15:20:14.735Z,7.40
2023-02-02T15:23:06.799Z,7.40
2023-02-02T15:25:57.825Z,7.30
2023-02-02T15:28:48.852Z,7.30
2023-02-02T15:31:41.189Z,7.20
2023-02-02T15:34:37.597Z,7.20
2023-02-02T15:37:27.952Z,7.20
2023-02-02T15:40:21.527Z,7.20
2023-02-02T15:43:10.136Z,7.00
2023-02-02T15:46:03.019Z,7.00
2023-02-02T15:49:31.412Z,6.90
2023-02-02T15:52:25.573Z,6.90
2023-02-02T15:55:22.938Z,6.90
2023-02-02T15:58:24.692Z,6.80
2023-02-02T16:01:17.467Z,6.80
2023-02-02T16:04:16.931Z,6.80
2023-02-02T16:07:04.034Z,6.70
2023-02-02T16:09:51.176Z,6.80
2023-02-02T16:12:41.618Z,6.70
2023-02-02T16:15:31.834Z,6.70
2023-02-02T16:18:18.529Z,6.60
2023-02-02T16:21:21.827Z,6.70
2023-02-02T16:24:15.280Z,6.60
2023-02-02T16:27:05.551Z,6.60
2023-02-02T16:29:54.504Z,6.60
2023-02-02T16:32:41.970Z,6.60
2023-02-02T16:35:34.297Z,6.70
2023-02-02T16:38:25.904Z,6.60
2023-02-02T16:41:14.411Z,6.50
2023-02-02T16:44:45.953Z,6.60
2023-02-02T16:47:39.786Z,6.60
2023-02-02T16:50:29.865Z,6.50
2023-02-02T16:53:23.712Z,6.60
2023-02-02T16:56:20.291Z,6.50
2023-02-02T16:59:14.918Z,6.50
2023-02-02T17:02:04.487Z,6.40
2023-02-02T17:04:55.786Z,6.50
2023-02-02T17:07:49.060Z,6.60
2023-02-02T17:10:37.477Z,6.60
2023-02-02T17:13:40.290Z,6.60
2023-02-02T17:16:27.203Z,6.60
2023-02-02T17:19:14.000Z,6.60
2023-02-02T17:22:05.586Z,6.60
2023-02-02T17:24:53.677Z,6.60
2023-02-02T17:27:40.377Z,6.60
2023-02-02T17:30:28.305Z,6.60
2023-02-02T17:33:16.004Z,6.60
2023-02-02T17:36:02.437Z,6.60
2023-02-02T17:38:50.208Z,6.60
2023-02-02T17:41:37.712Z,6.60
2023-02-02T17:44:24.412Z,6.60
2023-02-02T17:47:14.032Z,6.60
2023-02-02T17:50:01.075Z,6.50
2023-02-02T17:52:48.609Z,6.50
2023-02-02T17:55:39.828Z,6.60
2023-02-02T17:58:26.577Z,6.60
2023-02-02T18:01:13.708Z,6.60
2023-02-02T18:04:00.696Z,6.60
2023-02-02T18:06:47.282Z,6.60
2023-02-02T18:09:34.250Z,6.60
2023-02-02T18:12:22.098Z,6.60
2023-02-02T18:15:13.843Z,6.60
2023-02-02T18:18:01.919Z,6.60
2023-02-02T18:20:50.483Z,6.60
2023-02-02T18:23:37.452Z,6.60
2023-02-02T18:26:24.531Z,6.50
2023-02-02T18:29:12.421Z,6.50
2023-02-02T18:31:59.319Z,6.50
2023-02-02T18:34:51.173Z,6.50
2023-02-02T18:37:39.146Z,6.50
2023-02-02T18:40:25.962Z,6.50
2023-02-02T18:43:12.304Z,6.50
2023-02-02T18:46:02.111Z,6.60
2023-02-02T18:48:48.765Z,6.50
2023-02-02T18:51:35.235Z,6.50
2023-02-02T18:54:22.307Z,6.50
2023-02-02T18:57:09.081Z,6.50
2023-02-02T18:59:55.435Z,6.50
2023-02-02T19:02:43.137Z,6.50
2023-02-02T19:05:46.918Z,6.40
2023-02-02T19:08:33.947Z,6.40
2023-02-02T19:11:22.084Z,6.50
2023-02-02T19:14:14.873Z,6.40
2023-02-02T19:17:21.091Z,6.40
2023-02-02T19:20:30.534Z,6.40
2023-02-02T19:23:18.797Z,6.40
2023-02-02T19:26:18.352Z,6.40
2023-02-02T19:29:16.294Z,6.40
2023-02-02T19:32:14.254Z,6.40
2023-02-02T19:35:02.678Z,6.40
2023-02-02T19:37:53.504Z,6.50
2023-02-02T19:40:41.259Z,6.40
2023-02-02T19:43:29.847Z,6.40
2023-02-02T19:46:21.437Z,6.40
2023-02-02T19:49:13.759Z,6.40
2023-02-02T19:52:03.837Z,6.40
2023-02-02T19:54:52.306Z,6.40
2023-02-02T19:57:41.912Z,6.40
2023-02-02T20:00:30.334Z,6.40
2023-02-02T20:03:19.760Z,6.40
2023-02-02T20:06:06.475Z,6.30
2023-02-02T20:08:54.045Z,6.40
2023-02-02T20:11:43.345Z,6.40
2023-02-02T20:14:32.209Z,6.40
2023-02-02T20:17:27.269Z,6.50
2023-02-02T20:20:23.422Z,6.50
2023-02-02T20:23:30.939Z,6.50
2023-02-02T20:26:28.414Z,6.50
2023-02-02T20:29:19.308Z,6.50
2023-02-02T20:32:06.697Z,6.50
2023-02-02T20:34:53.793Z,6.60
2023-02-02T20:37:46.771Z,6.60
2023-02-02T20:40:33.132Z,6.60
2023-02-02T20:43:19.558Z,6.70
2023-02-02T20:46:07.390Z,6.70
2023-02-02T20:48:54.124Z,6.70
2023-02-02T20:51:41.319Z,6.70
2023-02-02T20:54:28.035Z,6.70
2023-02-02T20:57:15.350Z,6.80
2023-02-02T21:00:02.033Z,6.80
2023-02-02T21:02:49.827Z,6.90
2023-02-02T21:05:37.118Z,6.80
2023-02-02T21:08:23.730Z,6.90
2023-02-02T21:11:10.061Z,6.90
2023-02-02T21:13:57.367Z,6.90
2023-02-02T21:16:43.874Z,7.00
2023-02-02T21:19:32.256Z,7.00
2023-02-02T21:22:18.648Z,7.00
2023-02-02T21:25:05.440Z,7.00
2023-02-02T21:27:51.947Z,7.10
2023-02-02T21:30:38.455Z,7.10
2023-02-02T21:33:25.584Z,7.10
2023-02-02T21:36:30.516Z,7.10
2023-02-02T21:39:21.814Z,7.20
2023-02-02T21:42:14.944Z,7.20
2023-02-02T21:45:25.270Z,7.30
2023-02-02T21:48:34.814Z,7.30
2023-02-02T21:51:25.897Z,7.40
2023-02-02T21:54:24.513Z,7.40
2023-02-02T21:57:17.184Z,7.50
2023-02-02T22:00:22.326Z,7.50
2023-02-02T22:03:27.359Z,7.60
2023-02-02T22:06:26.492Z,7.60
2023-02-02T22:09:19.710Z,7.70
2023-02-02T22:12:15.778Z,6.80
2023-02-02T22:15:04.923Z,7.70
2023-02-02T22:17:51.601Z,7.70
2023-02-02T22:20:38.383Z,7.80
2023-02-02T22:23:28.915Z,7.80
2023-02-02T22:26:29.342Z,7.90
2023-02-02T22:29:21.224Z,7.90
2023-02-02T22:32:08.006Z,8.00
2023-02-02T22:34:54.330Z,8.10
2023-02-02T22:37:40.754Z,8.10
2023-02-02T22:40:28.819Z,8.10
2023-02-02T22:43:16.693Z,8.10
2023-02-02T22:46:03.133Z,8.20
2023-02-02T22:48:50.015Z,8.20
2023-02-02T22:51:36.415Z,8.20
2023-02-02T22:54:23.166Z,8.20
2023-02-02T22:57:10.875Z,8.20
2023-02-02T22:59:57.496Z,8.20
2023-02-02T23:02:44.522Z,8.30
2023-02-02T23:05:31.203Z,8.30
2023-02-02T23:08:17.529Z,8.30
2023-02-02T23:11:04.030Z,8.40
2023-02-02T23:13:51.935Z,8.40
2023-02-02T23:16:38.512Z,8.40
2023-02-02T23:19:25.001Z,8.50
2023-02-02T23:22:11.466Z,8.50
2023-02-02T23:24:57.867Z,8.50
2023-02-02T23:27:44.376Z,8.50
2023-02-02T23:30:32.787Z,8.50
2023-02-02T23:33:19.432Z,8.50
2023-02-02T23:36:06.340Z,8.50
2023-02-02T23:38:53.196Z,8.50
2023-02-02T23:41:39.576Z,8.50
2023-02-02T23:44:26.089Z,8.50
2023-02-02T23:47:14.334Z,8.50
2023-02-02T23:50:00.869Z,8.60
2023-02-02T23:52:47.403Z,8.60
2023-02-02T23:55:34.362Z,8.60
2023-02-02T23:58:20.891Z,8.60
